createdAt,value
2019-04-03T00:03:06.033Z,5.30
2019-04-03T00:07:11.337Z,5.30
2019-04-03T00:11:16.271Z,5.20
2019-04-03T00:15:21.287Z,5.10
2019-04-03T00:19:26.201Z,5.10
2019-04-03T00:23:31.214Z,5.10
2019-04-03T00:27:36.139Z,5.10
2019-04-03T00:31:41.154Z,5.10
2019-04-03T00:35:46.049Z,5.10
2019-04-03T00:39:50.943Z,5.00
2019-04-03T00:43:55.976Z,5.00
2019-04-03T00:48:01.025Z,5.00
2019-04-03T00:52:06.190Z,5.00
2019-04-03T00:56:11.087Z,4.90
2019-04-03T01:00:17.902Z,4.80
2019-04-03T01:04:22.797Z,4.80
2019-04-03T01:08:29.357Z,4.80
2019-04-03T01:12:34.378Z,4.80
2019-04-03T01:16:39.351Z,4.70
2019-04-03T01:20:44.335Z,4.60
2019-04-03T01:24:49.799Z,4.60
2019-04-03T01:28:54.774Z,4.60
2019-04-03T01:33:00.003Z,4.60
2019-04-03T01:37:04.945Z,4.60
2019-04-03T01:41:10.018Z,4.50
2019-04-03T01:45:14.938Z,4.50
2019-04-03T01:49:19.954Z,4.50
2019-04-03T01:53:24.834Z,4.50
2019-04-03T01:57:29.781Z,4.40
2019-04-03T02:01:34.684Z,4.30
2019-04-03T02:05:39.822Z,4.30
2019-04-03T02:09:46.513Z,4.30
2019-04-03T02:13:51.689Z,4.30
2019-04-03T02:17:56.802Z,4.30
2019-04-03T02:22:01.664Z,4.30
2019-04-03T02:26:06.735Z,4.20
2019-04-03T02:30:13.561Z,4.30
2019-04-03T02:34:19.021Z,4.20
2019-04-03T02:38:24.012Z,4.20
2019-04-03T02:42:29.071Z,4.30
2019-04-03T02:46:34.324Z,4.30
2019-04-03T02:50:39.648Z,4.30
2019-04-03T02:54:45.550Z,4.30
2019-04-03T02:58:53.230Z,4.20
2019-04-03T03:02:57.787Z,4.20
2019-04-03T03:07:05.012Z,4.20
2019-04-03T03:11:10.138Z,4.10
2019-04-03T03:15:15.118Z,4.10
2019-04-03T03:19:21.869Z,4.10
2019-04-03T03:23:27.070Z,4.00
2019-04-03T03:27:32.379Z,4.00
2019-04-03T03:32:01.501Z,3.90
2019-04-03T03:35:48.619Z,3.90
2019-04-03T03:39:53.210Z,3.90
2019-04-03T03:43:58.955Z,3.70
2019-04-03T03:48:08.727Z,3.60
2019-04-03T03:52:12.685Z,3.50
2019-04-03T03:56:20.699Z,3.50
2019-04-03T04:00:25.965Z,3.30
2019-04-03T04:04:31.030Z,3.30
2019-04-03T04:08:36.422Z,3.30
2019-04-03T04:12:42.056Z,3.30
2019-04-03T04:16:47.843Z,3.30
2019-04-03T04:20:53.791Z,3.20
2019-04-03T04:24:59.893Z,3.20
2019-04-03T04:29:05.667Z,3.20
2019-04-03T04:33:10.684Z,3.30
2019-04-03T04:37:15.754Z,3.30
2019-04-03T04:41:20.874Z,3.30
2019-04-03T04:45:25.855Z,3.30
2019-04-03T04:49:30.955Z,3.40
2019-04-03T04:53:36.268Z,3.30
2019-04-03T04:57:41.400Z,3.40
2019-04-03T05:01:47.048Z,3.40
2019-04-03T05:05:53.026Z,3.50
2019-04-03T05:09:58.054Z,3.70
2019-04-03T05:14:03.368Z,3.90
2019-04-03T05:18:08.826Z,4.00
2019-04-03T05:22:13.762Z,4.10
2019-04-03T05:26:21.038Z,4.10
2019-04-03T05:30:33.307Z,4.30
2019-04-03T05:34:38.443Z,4.40
2019-04-03T05:38:43.307Z,4.60
2019-04-03T05:42:48.498Z,4.80
2019-04-03T05:46:53.490Z,5.00
2019-04-03T05:50:58.745Z,5.20
2019-04-03T05:55:03.803Z,5.50
2019-04-03T05:59:08.872Z,5.80
2019-04-03T06:03:13.825Z,6.10
2019-04-03T06:07:19.205Z,6.30
2019-04-03T06:11:24.374Z,6.60
2019-04-03T06:15:29.543Z,6.90
2019-04-03T06:19:35.200Z,7.30
2019-04-03T06:23:41.017Z,7.70
2019-04-03T06:27:46.593Z,8.20
2019-04-03T06:31:51.488Z,8.70
2019-04-03T06:35:56.426Z,9.10
2019-04-03T06:40:02.985Z,9.60
2019-04-03T06:44:08.830Z,10.30
2019-04-03T06:48:13.973Z,10.90
2019-04-03T06:52:20.969Z,11.50
2019-04-03T06:56:25.734Z,12.10
2019-04-03T07:00:30.707Z,12.60
2019-04-03T07:04:37.946Z,12.90
2019-04-03T07:08:42.797Z,12.90
2019-04-03T07:12:48.100Z,13.30
2019-04-03T07:16:53.549Z,13.20
2019-04-03T07:20:58.527Z,13.20
2019-04-03T07:25:03.921Z,13.50
2019-04-03T07:29:11.267Z,14.00
2019-04-03T07:33:15.851Z,14.30
2019-04-03T07:37:20.787Z,14.60
2019-04-03T07:41:25.742Z,14.60
2019-04-03T07:45:32.766Z,14.70
2019-04-03T07:49:37.720Z,14.60
2019-04-03T07:53:43.987Z,14.70
2019-04-03T07:57:49.018Z,14.90
2019-04-03T08:01:53.968Z,14.90
2019-04-03T08:06:01.015Z,15.10
2019-04-03T08:10:08.016Z,15.50
2019-04-03T08:14:13.278Z,15.60
2019-04-03T08:18:20.407Z,15.70
2019-04-03T08:22:24.931Z,15.70
2019-04-03T08:26:30.012Z,16.00
2019-04-03T08:30:35.111Z,16.30
2019-04-03T08:34:40.895Z,17.20
2019-04-03T08:38:46.500Z,18.40
2019-04-03T08:42:51.423Z,19.10
2019-04-03T08:46:56.301Z,20.00
2019-04-03T08:51:02.998Z,20.30
2019-04-03T08:55:08.844Z,21.10
2019-04-03T08:59:13.936Z,21.80
2019-04-03T09:03:20.130Z,21.70
2019-04-03T09:07:25.547Z,22.20
2019-04-03T09:11:30.653Z,22.30
2019-04-03T09:15:35.711Z,21.90
2019-04-03T09:19:41.741Z,21.60
2019-04-03T09:23:47.340Z,21.20
2019-04-03T09:27:52.219Z,21.70
2019-04-03T09:31:57.865Z,20.50
2019-04-03T09:36:04.372Z,20.20
2019-04-03T09:40:09.965Z,21.20
2019-04-03T09:44:14.867Z,21.80
2019-04-03T09:48:19.923Z,21.30
2019-04-03T09:52:37.369Z,20.40
2019-04-03T09:56:31.436Z,20.40
2019-04-03T10:00:36.606Z,19.70
2019-04-03T10:04:41.529Z,18.70
2019-04-03T10:08:47.063Z,18.40
2019-04-03T10:12:54.222Z,18.60
2019-04-03T10:16:58.994Z,19.20
2019-04-03T10:21:03.939Z,20.70
2019-04-03T10:25:09.386Z,20.40
2019-04-03T10:29:14.348Z,20.50
2019-04-03T10:33:19.419Z,20.80
2019-04-03T10:37:24.427Z,20.80
2019-04-03T10:41:29.803Z,21.20
2019-04-03T10:45:34.845Z,21.50
2019-04-03T10:49:40.350Z,21.20
2019-04-03T10:53:45.532Z,22.00
2019-04-03T10:57:50.641Z,23.00
2019-04-03T11:01:55.623Z,24.20
2019-04-03T11:06:00.712Z,23.30
2019-04-03T11:10:07.579Z,23.30
2019-04-03T11:14:12.495Z,23.20
2019-04-03T11:18:18.897Z,22.90
2019-04-03T11:22:24.482Z,22.60
2019-04-03T11:26:30.188Z,23.40
2019-04-03T11:30:35.200Z,22.90
2019-04-03T11:34:40.244Z,22.60
2019-04-03T11:38:45.129Z,23.80
2019-04-03T11:42:50.142Z,24.50
2019-04-03T11:46:55.119Z,25.70
2019-04-03T11:51:00.751Z,26.60
2019-04-03T11:55:07.793Z,27.60
2019-04-03T11:59:18.579Z,28.00
2019-04-03T12:03:51.623Z,29.70
2019-04-03T12:07:57.426Z,29.30
2019-04-03T12:12:10.223Z,29.70
2019-04-03T12:16:15.766Z,30.60
2019-04-03T12:20:23.963Z,29.50
2019-04-03T12:24:36.503Z,28.50
2019-04-03T12:28:42.207Z,28.30
2019-04-03T12:32:54.715Z,26.80
2019-04-03T12:37:02.864Z,28.10
2019-04-03T12:41:09.777Z,28.60
2019-04-03T12:45:18.237Z,26.80
2019-04-03T12:49:23.611Z,27.80
2019-04-03T12:53:29.195Z,29.00
2019-04-03T12:57:34.439Z,26.90
2019-04-03T13:01:48.733Z,24.40
2019-04-03T13:05:53.053Z,23.20
2019-04-03T13:09:58.117Z,22.30
2019-04-03T13:14:03.110Z,21.90
2019-04-03T13:18:07.986Z,22.20
2019-04-03T13:22:12.906Z,22.10
2019-04-03T13:26:17.800Z,24.30
2019-04-03T13:30:23.551Z,26.70
2019-04-03T13:34:31.110Z,26.40
2019-04-03T13:38:35.170Z,24.50
2019-04-03T13:42:40.149Z,23.10
2019-04-03T13:46:45.455Z,24.60
2019-04-03T13:50:50.325Z,26.60
2019-04-03T13:54:57.730Z,26.80
2019-04-03T13:59:02.245Z,26.00
2019-04-03T14:03:07.997Z,25.90
2019-04-03T14:07:13.412Z,24.30
2019-04-03T14:11:18.459Z,22.10
2019-04-03T14:15:24.152Z,21.90
2019-04-03T14:19:41.801Z,22.40
2019-04-03T14:23:36.122Z,23.70
2019-04-03T14:27:41.804Z,24.70
2019-04-03T14:31:48.959Z,23.20
2019-04-03T14:35:54.794Z,21.80
2019-04-03T14:40:00.013Z,20.60
2019-04-03T14:44:06.903Z,19.70
2019-04-03T14:48:11.907Z,19.00
2019-04-03T14:52:17.615Z,18.30
2019-04-03T14:56:22.897Z,17.50
2019-04-03T15:00:30.871Z,16.70
2019-04-03T15:04:36.480Z,16.20
2019-04-03T15:08:41.047Z,15.60
2019-04-03T15:12:46.149Z,14.40
2019-04-03T15:16:51.198Z,13.80
2019-04-03T15:20:56.566Z,13.60
2019-04-03T15:25:01.558Z,13.70
2019-04-03T15:29:07.147Z,14.10
2019-04-03T15:33:12.670Z,14.80
2019-04-03T15:37:17.661Z,16.60
2019-04-03T15:41:22.781Z,17.10
2019-04-03T15:45:27.783Z,16.90
2019-04-03T15:49:32.992Z,16.60
2019-04-03T15:53:38.187Z,16.10
2019-04-03T15:57:43.370Z,15.60
2019-04-03T16:01:49.301Z,15.40
2019-04-03T16:05:54.405Z,15.20
2019-04-03T16:09:59.302Z,15.00
2019-04-03T16:14:04.471Z,14.90
2019-04-03T16:18:09.562Z,14.70
2019-04-03T16:22:14.580Z,14.60
2019-04-03T16:26:23.343Z,14.40
2019-04-03T16:30:26.750Z,14.40
2019-04-03T16:34:31.810Z,14.50
2019-04-03T16:38:37.319Z,14.60
2019-04-03T16:42:43.327Z,14.60
2019-04-03T16:46:49.163Z,14.70
2019-04-03T16:50:54.573Z,14.70
2019-04-03T16:55:00.331Z,14.70
2019-04-03T16:59:07.295Z,14.80
2019-04-03T17:03:12.269Z,14.70
2019-04-03T17:07:17.980Z,14.60
2019-04-03T17:11:23.903Z,14.70
2019-04-03T17:15:42.045Z,14.70
2019-04-03T17:19:49.902Z,14.50
2019-04-03T17:23:53.797Z,14.30
2019-04-03T17:28:04.578Z,14.00
2019-04-03T17:32:08.236Z,13.90
2019-04-03T17:36:15.431Z,13.70
2019-04-03T17:40:21.152Z,13.60
2019-04-03T17:44:26.788Z,13.40
2019-04-03T17:48:32.045Z,13.40
2019-04-03T17:52:37.265Z,13.40
2019-04-03T17:56:43.043Z,13.30
2019-04-03T18:00:51.671Z,13.20
2019-04-03T18:04:56.428Z,12.90
2019-04-03T18:09:03.598Z,12.70
2019-04-03T18:13:09.254Z,12.40
2019-04-03T18:17:14.701Z,12.10
2019-04-03T18:21:20.252Z,11.80
2019-04-03T18:25:26.870Z,11.50
2019-04-03T18:29:33.536Z,11.40
2019-04-03T18:33:39.440Z,11.20
2019-04-03T18:37:45.208Z,11.00
2019-04-03T18:41:50.736Z,10.80
2019-04-03T18:45:58.488Z,10.70
2019-04-03T18:50:03.533Z,10.50
2019-04-03T18:54:11.649Z,10.30
2019-04-03T18:58:17.800Z,10.10
2019-04-03T19:02:24.615Z,10.00
2019-04-03T19:06:30.255Z,9.80
2019-04-03T19:10:35.867Z,9.70
2019-04-03T19:14:40.873Z,9.60
2019-04-03T19:18:48.594Z,9.40
2019-04-03T19:23:02.618Z,9.20
2019-04-03T19:27:04.065Z,9.10
2019-04-03T19:31:09.870Z,8.90
2019-04-03T19:35:15.001Z,8.80
2019-04-03T19:39:21.655Z,8.70
2019-04-03T19:43:26.731Z,8.50
2019-04-03T19:47:31.769Z,8.50
2019-04-03T19:51:37.471Z,8.50
2019-04-03T19:55:43.095Z,8.50
2019-04-03T19:59:49.047Z,8.50
2019-04-03T20:03:53.942Z,8.40
2019-04-03T20:07:59.825Z,8.30
2019-04-03T20:12:07.057Z,8.30
2019-04-03T20:16:12.449Z,8.20
2019-04-03T20:20:20.776Z,8.10
2019-04-03T20:24:29.784Z,8.10
2019-04-03T20:28:35.295Z,7.90
2019-04-03T20:32:41.004Z,7.80
2019-04-03T20:36:46.183Z,7.80
2019-04-03T20:40:51.173Z,7.70
2019-04-03T20:44:56.178Z,7.60
2019-04-03T20:49:03.161Z,7.60
2019-04-03T20:53:07.926Z,7.50
2019-04-03T20:57:13.602Z,7.50
2019-04-03T21:01:18.891Z,7.30
2019-04-03T21:05:25.308Z,7.40
2019-04-03T21:09:30.592Z,7.50
2019-04-03T21:13:35.581Z,7.50
2019-04-03T21:17:40.477Z,7.50
2019-04-03T21:21:45.397Z,7.50
2019-04-03T21:25:50.279Z,7.50
2019-04-03T21:29:58.039Z,7.50
2019-04-03T21:34:02.390Z,7.40
2019-04-03T21:38:10.507Z,7.30
2019-04-03T21:42:14.323Z,7.20
2019-04-03T21:46:21.310Z,7.10
2019-04-03T21:50:26.201Z,7.10
2019-04-03T21:54:31.200Z,6.90
2019-04-03T21:58:36.067Z,6.80
2019-04-03T22:02:41.315Z,6.80
2019-04-03T22:06:46.244Z,6.70
2019-04-03T22:10:51.873Z,6.60
2019-04-03T22:14:56.948Z,6.40
2019-04-03T22:19:01.831Z,6.20
2019-04-03T22:23:06.874Z,6.20
2019-04-03T22:27:12.145Z,6.10
2019-04-03T22:31:17.387Z,6.10
2019-04-03T22:35:22.272Z,6.00
2019-04-03T22:39:27.369Z,5.90
2019-04-03T22:43:32.249Z,5.90
2019-04-03T22:47:37.354Z,5.80
2019-04-03T22:51:42.630Z,5.70
2019-04-03T22:55:48.054Z,5.60
2019-04-03T22:59:54.498Z,5.50
2019-04-03T23:03:59.563Z,5.50
2019-04-03T23:08:04.785Z,5.50
2019-04-03T23:12:09.779Z,5.40
2019-04-03T23:16:14.675Z,5.30
2019-04-03T23:20:20.091Z,5.20
2019-04-03T23:24:28.671Z,5.20
2019-04-03T23:28:33.987Z,5.10
2019-04-03T23:32:39.520Z,5.10
2019-04-03T23:36:44.836Z,5.00
2019-04-03T23:40:49.827Z,5.00
2019-04-03T23:44:54.674Z,4.90
2019-04-03T23:48:59.557Z,4.90
2019-04-03T23:53:04.559Z,4.90
2019-04-03T23:57:10.187Z,4.70
